Data for 09/20/2008

Time Sea-Level Adjusted Pressure Absolute Pressure Temperature Relative Humidity Dew Point   
(mb) (inHg) (mb) (inHg) (C) (F) (%) (C) (F)
00:05 1018 30.06 847 25.01 16.9 62.4 32 0.2 32.4
00:10 1018 30.06 847 25.01 16.8 62.3 32 -0 32
00:15 1018 30.06 847 25.01 17 62.6 30 -0.4 31.2
00:20 1018 30.06 847 25.01 17.4 63.3 30 -0.5 31.2
00:25 1018 30.06 847 25.01 17.5 63.6 30 -0.2 31.7
00:30 1018 30.06 847 25.01 17.3 63.2 30 -0.3 31.5
00:35 1018 30.06 847 25.01 17.3 63.1 30 -0.2 31.6
00:40 1018 30.06 847 25.01 17.6 63.7 30 -0.2 31.7
00:45 1018 30.06 847 25.01 17.5 63.4 30 -0.3 31.5
00:50 1018 30.06 847 25.01 17.5 63.6 29 -0.8 30.6
00:55 1018 30.06 847 25.01 18 64.5 28 -0.6 30.9
01:00 1018 30.06 847 25.01 18.1 64.5 28 -0.5 31
01:05 1018 30.06 847 25.01 18.2 64.7 27 -0.9 30.3
01:10 1017 30.03 847 25.01 18.5 65.3 27 -0.7 30.8
01:15 1017 30.03 847 25.01 18.4 65.2 27 -0.7 30.8
01:20 1017 30.03 847 25.01 18.2 64.8 31 0.8 33.5
01:25 1017 30.03 847 25.01 17.8 64.1 29 -0.1 31.8
01:30 1017 30.03 847 25.01 18 64.4 28 -0.8 30.6
01:35 1017 30.03 847 25.01 18.1 64.5 28 -0.4 31.3
01:40 1017 30.03 847 25.01 18 64.3 29 -0.3 31.4
01:45 1017 30.03 847 25.01 17.9 64.2 31 0.6 33.1
01:50 1017 30.03 847 25.01 17.6 63.6 29 -0.6 31
01:55 1017 30.03 847 25.01 17.6 63.7 29 -0.6 30.9
02:00 1017 30.03 846 24.98 17.9 64.2 29 -0.5 31.1
02:05 1017 30.03 846 24.98 17.8 64 29 -0.3 31.5
02:10 1017 30.03 846 24.98 17.6 63.7 29 -0.4 31.3
02:15 1017 30.03 847 25.01 17.6 63.7 29 -0.6 30.9
02:20 1017 30.03 847 25.01 17.7 63.9 28 -0.7 30.8
02:25 1017 30.03 846 24.98 17.8 64 28 -0.8 30.5
02:30 1017 30.03 846 24.98 17.6 63.6 30 0 32.1
02:35 1017 30.03 846 24.98 17.2 63 30 -0.6 31
02:40 1017 30.03 846 24.98 17.2 62.9 29 -0.7 30.7
02:45 1017 30.03 846 24.98 17.1 62.8 30 -0.3 31.5
02:50 1017 30.03 846 24.98 17 62.5 30 -0.5 31.2
02:55 1017 30.03 846 24.98 17.1 62.7 30 -0.6 31
03:00 1017 30.03 846 24.98 17 62.6 30 -0.4 31.3
03:05 1017 30.03 846 24.98 16.9 62.4 31 -0.4 31.3
03:10 1017 30.03 846 24.98 16.7 62.1 31 -0.5 31
03:15 1017 30.03 846 24.98 16.5 61.7 32 -0.2 31.7
03:20 1017 30.03 846 24.98 16.4 61.5 31 -0.5 31.1
03:25 1017 30.03 846 24.98 16.8 62.2 30 -0.8 30.6
03:30 1017 30.03 846 24.98 17 62.7 29 -0.9 30.3
03:35 1017 30.03 846 24.98 17.3 63.1 28 -1.1 30
03:40 1017 30.03 846 24.98 17.5 63.5 29 -0.6 30.9
03:45 1017 30.03 846 24.98 17.6 63.6 28 -1.2 29.9
03:50 1017 30.03 846 24.98 17.6 63.7 28 -0.9 30.5
03:55 1017 30.03 846 24.98 17.4 63.3 29 -0.8 30.5
04:00 1017 30.03 846 24.98 17.3 63.1 29 -0.7 30.7
04:05 1017 30.03 846 24.98 17.2 63 30 -0.5 31
04:10 1017 30.03 846 24.98 17.1 62.8 30 -0.6 31
04:15 1017 30.03 846 24.98 16.8 62.2 30 -0.8 30.5
04:20 1017 30.03 846 24.98 16.8 62.2 30 -0.8 30.6
04:25 1017 30.03 846 24.98 16.5 61.8 32 -0.3 31.5
04:30 1017 30.03 846 24.98 16.1 61 32 -0.3 31.5
04:35 1017 30.03 846 24.98 15.9 60.5 32 -0.5 31.1
04:40 1017 30.03 846 24.98 15.6 60.1 33 -0.6 31
04:45 1017 30.03 846 24.98 15.8 60.4 32 -0.6 31
04:50 1017 30.03 846 24.98 15.6 60.1 33 -0.6 30.9
04:55 1017 30.03 846 24.98 15.7 60.2 32 -0.9 30.4
05:00 1017 30.03 846 24.98 15.8 60.5 31 -1 30.3
05:05 1017 30.03 846 24.98 15.9 60.7 32 -0.8 30.6
05:10 1017 30.03 846 24.98 15.9 60.6 33 -0.5 31.2
05:15 1017 30.03 846 24.98 16 60.7 32 -0.7 30.8
05:20 1017 30.03 846 24.98 15.8 60.4 32 -0.7 30.7
05:25 1017 30.03 846 24.98 15.8 60.5 32 -0.6 30.9
05:30 1017 30.03 846 24.98 15.6 60 33 -0.6 30.9
05:35 1017 30.03 846 24.98 15.5 59.9 33 -0.8 30.6
05:40 1017 30.03 846 24.98 15.3 59.6 33 -0.6 30.9
05:45 1017 30.03 846 24.98 15.4 59.6 33 -0.9 30.5
05:50 1017 30.03 846 24.98 15.3 59.5 33 -0.7 30.8
05:55 1017 30.03 846 24.98 15 59.1 35 -0.3 31.4
06:00 1017 30.03 846 24.98 14.8 58.6 34 -0.7 30.7
06:05 1017 30.03 846 24.98 14.7 58.5 35 -0.5 31
06:10 1017 30.03 846 24.98 14.9 58.9 35 -0.3 31.5
06:15 1017 30.03 846 24.98 14.7 58.5 35 -0.6 30.9
06:20 1017 30.03 846 24.98 14.8 58.7 34 -0.9 30.4
06:25 1017 30.03 846 24.98 14.8 58.7 34 -0.8 30.5
06:30 1017 30.03 846 24.98 15.4 59.7 33 -0.6 30.9
06:35 1017 30.03 846 24.98 15.2 59.4 33 -0.8 30.5
06:40 1017 30.03 846 24.98 15 59 34 -0.7 30.8
06:45 1017 30.03 846 24.98 15 58.9 35 -0.4 31.3
06:50 1017 30.03 846 24.98 14.8 58.7 35 -0.3 31.5
06:55 1017 30.03 846 24.98 14.6 58.3 36 -0.2 31.6
07:00 1017 30.03 846 24.98 14.7 58.5 36 0 32.1
07:05 1017 30.03 846 24.98 14.1 57.4 39 0.5 32.9
07:10 1017 30.03 846 24.98 13.7 56.6 36 -1 30.1
07:15 1017 30.03 846 24.98 14.4 57.9 36 -0.5 31.1
07:20 1017 30.03 846 24.98 14.5 58.2 33 -1.5 29.4
07:25 1017 30.03 846 24.98 15.4 59.7 32 -0.9 30.3
07:30 1017 30.03 846 24.98 15.3 59.5 34 -0.6 31
07:35 1017 30.03 846 24.98 14.9 58.9 33 -1.2 29.9
07:40 1017 30.03 846 24.98 15.4 59.6 32 -1.2 29.9
07:45 1017 30.03 846 24.98 15.7 60.2 32 -0.9 30.3
07:50 1017 30.03 846 24.98 15.5 60 33 -0.4 31.2
07:55 1016 30 846 24.98 15.2 59.3 35 -0.3 31.5
08:00 1016 30 846 24.98 14.9 58.7 36 0.1 32.2
08:05 1016 30 846 24.98 14.6 58.3 37 0.2 32.4
08:10 1016 30 846 24.98 14.8 58.7 35 -0.3 31.4
08:15 1016 30 846 24.98 15.3 59.6 35 0 32.1
08:20 1016 30 846 24.98 16 60.7 35 0.8 33.4
08:25 1016 30 845 24.95 15.9 60.5 35 0.5 32.9
08:30 1016 30 845 24.95 15.8 60.4 36 0.7 33.3
08:35 1016 30 845 24.95 15.7 60.3 35 0.5 33
08:40 1016 30 845 24.95 16.2 61.1 33 -0.2 31.7
08:45 1016 30 845 24.95 16.2 61.2 34 0.6 33.1
08:50 1016 30 845 24.95 16.4 61.5 34 0.6 33.1
08:55 1016 30 845 24.95 16.6 61.9 37 1.9 35.5
09:00 1016 30 845 24.95 16.9 62.4 35 1.4 34.5
09:05 1016 30 845 24.95 16.7 62.1 37 2.2 35.9
09:10 1016 30 845 24.95 16 60.8 39 2.2 36
09:15 1016 30 845 24.95 16.6 61.9 40 2.9 37.3
09:20 1016 30 846 24.98 17.2 63 37 2.6 36.6
09:25 1016 30 846 24.98 18 64.5 36 2.9 37.3
09:30 1016 30 846 24.98 18.1 64.6 37 3.3 38
09:35 1016 30 846 24.98 18 64.4 35 2.4 36.4
09:40 1016 30 846 24.98 19.1 66.4 33 2.7 36.9
09:45 1017 30.03 846 24.98 19.1 66.4 41 5.7 42.2
09:50 1017 30.03 846 24.98 18 64.3 45 5.8 42.5
09:55 1017 30.03 846 24.98 17.5 63.4 46 5.8 42.5
10:00 1017 30.03 846 24.98 17.2 63 45 5.4 41.7
10:05 1017 30.03 846 24.98 17.6 63.6 43 4.9 40.7
10:10 1017 30.03 846 24.98 17.4 63.3 43 4.7 40.5
10:15 1017 30.03 846 24.98 17 62.5 40 3.5 38.4
10:20 1017 30.03 846 24.98 16.7 62 39 2.7 36.9
10:25 1017 30.03 846 24.98 16.7 62 39 2.8 37
10:30 1017 30.03 846 24.98 16.9 62.4 39 3 37.3
10:35 1017 30.03 846 24.98 17.3 63.1 39 3.2 37.7
10:40 1017 30.03 846 24.98 17.8 64 37 3 37.4
10:45 1017 30.03 846 24.98 18.8 65.9 35 3.3 37.9
10:50 1017 30.03 846 24.98 19.4 66.8 34 3 37.5
10:55 1017 30.03 846 24.98 19.9 67.8 32 2.9 37.3
11:00 1017 30.03 846 24.98 20.6 69.1 31 3.3 37.9
11:05 1017 30.03 846 24.98 20.5 68.9 33 3.7 38.6
11:10 1017 30.03 846 24.98 21.2 70.1 31 3.6 38.5
11:15 1017 30.03 846 24.98 21.8 71.3 31 4 39.1
11:20 1017 30.03 846 24.98 21.6 70.8 31 4.1 39.4
11:25 1017 30.03 846 24.98 21.3 70.4 31 3.5 38.3
11:30 1017 30.03 846 24.98 21.4 70.4 27 1.8 35.3
11:35 1017 30.03 846 24.98 22.5 72.6 26 2.4 36.3
11:40 1016 30 846 24.98 22.5 72.6 27 3 37.4
11:45 1016 30 846 24.98 22.1 71.7 28 3 37.5
11:50 1016 30 846 24.98 21.6 70.8 29 2.9 37.2
11:55 1016 30 846 24.98 21 69.8 31 3.2 37.8
12:00 1016 30 845 24.95 20.8 69.4 30 3 37.3
12:05 1016 30 845 24.95 20.7 69.2 32 3.4 38
12:10 1016 30 846 24.98 20.6 69 31 3 37.4
12:15 1016 30 845 24.95 20.5 68.8 31 2.9 37.2
12:20 1016 30 845 24.95 20.5 68.8 31 3 37.3
12:25 1016 30 845 24.95 20.7 69.2 30 2.8 37
12:30 1016 30 845 24.95 21 69.9 30 2.8 37.1
12:35 1016 30 845 24.95 20.9 69.7 30 2.7 36.9
12:40 1016 30 845 24.95 20.9 69.6 31 3.3 37.9
12:45 1016 30 845 24.95 21.1 70 32 3.8 38.8
12:50 1016 30 845 24.95 21.4 70.5 30 3.2 37.7
12:55 1016 30 845 24.95 21.7 71.1 30 3.5 38.4
13:00 1016 30 845 24.95 21.5 70.7 33 4.9 40.9
13:05 1016 30 845 24.95 21.3 70.4 32 4.3 39.7
13:10 1016 30 845 24.95 21.6 70.8 30 3.4 38.2
13:15 1015 29.97 845 24.95 21.8 71.2 30 3.4 38.1
13:20 1015 29.97 845 24.95 22.2 71.9 30 3.8 38.8
13:25 1015 29.97 845 24.95 23 73.3 26 2.7 36.9
13:30 1015 29.97 844 24.92 23.1 73.7 26 2.6 36.7
13:35 1015 29.97 844 24.92 23.4 74 26 3 37.5
13:40 1015 29.97 844 24.92 23.7 74.7 25 2.5 36.6
13:45 1015 29.97 844 24.92 24.1 75.3 24 2.4 36.4
13:50 1015 29.97 844 24.92 25.1 77.3 24 3.2 37.8
13:55 1015 29.97 844 24.92 23.8 74.9 25 2.9 37.3
14:00 1015 29.97 844 24.92 24 75.2 26 3.3 38
14:05 1015 29.97 844 24.92 24.6 76.3 24 3.1 37.5
14:10 1015 29.97 844 24.92 23.9 75 25 3 37.4
14:15 1014 29.94 844 24.92 23.5 74.3 24 2.1 35.8
14:20 1014 29.94 844 24.92 24.4 75.8 24 2.9 37.3
14:25 1014 29.94 844 24.92 23.6 74.5 27 3.5 38.4
14:30 1014 29.94 843 24.89 23 73.4 27 3.1 37.6
14:35 1014 29.94 843 24.89 23.3 74 25 2.4 36.3
14:40 1014 29.94 843 24.89 23.9 74.9 26 3.3 38
14:45 1014 29.94 843 24.89 24 75.2 24 2.7 36.8
14:50 1014 29.94 843 24.89 23.9 75.1 25 3.1 37.6
14:55 1014 29.94 843 24.89 23.8 74.9 25 3 37.3
15:00 1014 29.94 843 24.89 23.7 74.6 26 3.1 37.6
15:05 1014 29.94 843 24.89 23.3 74 27 3.6 38.5
15:10 1014 29.94 843 24.89 23.2 73.8 28 3.9 39.1
15:15 1014 29.94 843 24.89 23.3 73.9 26 2.9 37.2
15:20 1014 29.94 843 24.89 23 73.5 27 3.3 37.9
15:25 1014 29.94 843 24.89 22.6 72.6 32 5.3 41.5
15:30 1014 29.94 843 24.89 20.6 69 41 6.9 44.4
15:35 1014 29.94 843 24.89 18.4 65.1 49 7.7 45.8
15:40 1015 29.97 844 24.92 17 62.6 57 8.5 47.3
15:45 1015 29.97 844 24.92 16 60.9 60 8.3 47
15:50 1015 29.97 844 24.92 15.8 60.5 60 8.3 46.9
15:55 1015 29.97 844 24.92 15.8 60.5 63 8.8 47.9
16:00 1015 29.97 844 24.92 15.7 60.3 57 7.4 45.4
16:05 1015 29.97 844 24.92 16.3 61.3 67 10.1 50.2
16:10 1014 29.94 844 24.92 16.2 61.1 70 10.9 51.5
16:15 1015 29.97 844 24.92 16.5 61.7 63 9.5 49.1
16:20 1015 29.97 844 24.92 17 62.6 64 10.3 50.5
16:25 1015 29.97 844 24.92 16.2 61.1 74 11.6 52.9
16:30 1014 29.94 844 24.92 15.1 59.1 69 9.4 49
16:35 1014 29.94 844 24.92 15.2 59.3 70 9.7 49.5
16:40 1015 29.97 844 24.92 15.1 59.2 69 9.6 49.3
16:45 1015 29.97 844 24.92 15.4 59.8 67 9.3 48.8
16:50 1014 29.94 844 24.92 15.4 59.6 67 9.3 48.7
16:55 1014 29.94 844 24.92 15.4 59.7 68 9.6 49.3
17:00 1014 29.94 844 24.92 15.5 59.9 63 8.6 47.4
17:05 1014 29.94 844 24.92 15.9 60.5 62 8.7 47.6
17:10 1014 29.94 844 24.92 16.4 61.5 59 8.5 47.2
17:15 1014 29.94 844 24.92 17.2 62.9 58 9 48.2
17:20 1014 29.94 843 24.89 17.8 64 57 9.2 48.6
17:25 1014 29.94 843 24.89 17.7 63.8 54 8.3 46.9
17:30 1014 29.94 843 24.89 18.2 64.7 53 8.7 47.6
17:35 1014 29.94 843 24.89 18.7 65.6 53 9 48.1
17:40 1014 29.94 843 24.89 18.7 65.7 52 8.7 47.7
17:45 1014 29.94 843 24.89 18.9 65.9 51 8.6 47.5
17:50 1014 29.94 843 24.89 18.6 65.5 54 9.2 48.5
17:55 1014 29.94 843 24.89 18.7 65.7 52 8.7 47.7
18:00 1014 29.94 843 24.89 18.5 65.3 51 8.4 47.2
18:05 1014 29.94 843 24.89 18.4 65.1 52 8.4 47.1
18:10 1014 29.94 843 24.89 18.1 64.6 56 9.3 48.8
18:15 1014 29.94 843 24.89 17.9 64.2 58 9.6 49.4
18:20 1014 29.94 843 24.89 17.6 63.7 59 9.7 49.4
18:25 1014 29.94 843 24.89 17.5 63.5 59 9.6 49.3
18:30 1014 29.94 843 24.89 17.3 63.1 57 8.9 48
18:35 1014 29.94 843 24.89 16.9 62.5 59 8.9 48.1
18:40 1014 29.94 843 24.89 16.8 62.2 60 9 48.3
18:45 1014 29.94 843 24.89 16.7 62.1 58 8.6 47.4
18:50 1014 29.94 843 24.89 16.7 62.1 59 8.8 47.9
18:55 1014 29.94 844 24.92 16.6 61.8 60 8.9 47.9
19:00 1015 29.97 844 24.92 16.3 61.3 51 6.3 43.3
19:05 1015 29.97 844 24.92 16.1 60.9 50 5.9 42.5
19:10 1015 29.97 844 24.92 15.2 59.3 62 8 46.4
19:15 1016 30 845 24.95 14 57.1 67 8 46.4
19:20 1016 30 845 24.95 13.1 55.5 69 7.6 45.7
19:25 1016 30 845 24.95 13 55.4 65 6.7 44
19:30 1016 30 845 24.95 13.3 55.9 65 6.8 44.2
19:35 1016 30 845 24.95 13.3 55.9 61 5.9 42.7
19:40 1016 30 845 24.95 13.6 56.5 60 6.1 43
19:45 1016 30 845 24.95 13.6 56.4 61 6.4 43.4
19:50 1016 30 845 24.95 13.2 55.8 66 7 44.7
19:55 1016 30 845 24.95 12.9 55.1 67 7 44.6
20:00 1016 30 846 24.98 12.8 55 69 7.3 45.1
20:05 1016 30 846 24.98 12.6 54.6 69 7.1 44.8
20:10 1016 30 846 24.98 12.8 55 64 6.2 43.2
20:15 1016 30 845 24.95 12.9 55.1 64 6.3 43.4
20:20 1016 30 845 24.95 12.8 55 66 6.7 44
20:25 1016 30 845 24.95 12.7 54.8 67 6.7 44
20:30 1016 30 845 24.95 12.4 54.3 70 7 44.7
20:35 1016 30 845 24.95 12.1 53.8 74 7.6 45.7
20:40 1016 30 845 24.95 11.8 53.3 79 8.3 46.9
20:45 1016 30 845 24.95 11.5 52.7 76 7.5 45.5
20:50 1016 30 845 24.95 11.7 53 73 7.1 44.7
20:55 1016 30 845 24.95 11.8 53.3 73 7.1 44.9
21:00 1016 30 845 24.95 11.9 53.4 71 6.8 44.2
21:05 1016 30 845 24.95 12 53.5 72 7.1 44.9
21:10 1015 29.97 845 24.95 11.9 53.5 72 7.2 44.9
21:15 1015 29.97 845 24.95 11.8 53.3 73 7.2 44.9
21:20 1015 29.97 845 24.95 11.6 52.9 76 7.5 45.5
21:25 1015 29.97 845 24.95 11.4 52.6 76 7.4 45.4
21:30 1015 29.97 845 24.95 11.3 52.3 77 7.4 45.4
21:35 1015 29.97 844 24.92 11.2 52.1 78 7.6 45.6
21:40 1015 29.97 844 24.92 11.1 51.9 78 7.5 45.4
21:45 1015 29.97 844 24.92 11.2 52.1 77 7.3 45.2
21:50 1015 29.97 844 24.92 11.3 52.3 77 7.5 45.5
21:55 1015 29.97 844 24.92 11.2 52.2 76 7.2 45
22:00 1015 29.97 844 24.92 11.1 51.9 77 7.2 45
22:05 1015 29.97 844 24.92 11 51.8 75 6.8 44.2
22:10 1015 29.97 844 24.92 11.3 52.3 74 6.7 44.1
22:15 1015 29.97 844 24.92 11.4 52.5 75 7.1 44.9
22:20 1015 29.97 844 24.92 11.2 52.2 75 6.9 44.5
22:25 1015 29.97 844 24.92 11.3 52.4 74 6.9 44.5
22:30 1015 29.97 844 24.92 11.4 52.4 74 6.9 44.4
22:35 1015 29.97 844 24.92 11.3 52.4 75 7.1 44.7
22:40 1014 29.94 844 24.92 11.3 52.3 74 6.9 44.5
22:45 1014 29.94 844 24.92 11.2 52.1 74 6.7 44.1
22:50 1014 29.94 844 24.92 11.3 52.3 73 6.7 44
22:55 1014 29.94 843 24.89 11.2 52.2 75 7 44.5
23:00 1014 29.94 843 24.89 11 51.7 75 6.8 44.3
23:05 1014 29.94 843 24.89 10.7 51.3 77 6.9 44.5
23:10 1014 29.94 843 24.89 10.6 51 77 6.8 44.2
23:15 1014 29.94 843 24.89 10.6 51 77 6.8 44.2
23:20 1014 29.94 843 24.89 10.6 51.2 76 6.7 44
23:25 1014 29.94 843 24.89 10.8 51.4 75 6.5 43.7
23:30 1014 29.94 843 24.89 10.7 51.3 75 6.5 43.7
23:35 1014 29.94 843 24.89 10.6 51 76 6.4 43.6
23:40 1014 29.94 843 24.89 10.7 51.2 74 6.3 43.3
23:45 1014 29.94 843 24.89 10.8 51.4 74 6.3 43.3
23:50 1014 29.94 843 24.89 10.9 51.5 73 6.2 43.2
23:55 1014 29.94 843 24.89 11 51.7 73 6.3 43.3
24:00 1014 29.94 843 24.89 11.1 51.9 72 6.3 43.3